createdAt,value
2019-05-26T00:02:14.260Z,83.36
2019-05-26T00:04:42.727Z,85.33
2019-05-26T00:07:11.154Z,85.02
2019-05-26T00:09:39.658Z,84.58
2019-05-26T00:12:08.167Z,84.32
2019-05-26T00:14:36.598Z,84.52
2019-05-26T00:17:05.098Z,85.18
2019-05-26T00:19:33.808Z,84.51
2019-05-26T00:22:02.256Z,85.48
2019-05-26T00:24:30.692Z,86.05
2019-05-26T00:26:59.192Z,86.24
2019-05-26T00:29:27.629Z,85.49
2019-05-26T00:31:56.072Z,84.99
2019-05-26T00:34:24.575Z,84.41
2019-05-26T00:36:53.058Z,84.75
2019-05-26T00:39:21.561Z,85.74
2019-05-26T00:41:50.110Z,85.83
2019-05-26T00:44:18.630Z,85.26
2019-05-26T00:46:47.124Z,85.94
2019-05-26T00:49:15.722Z,86.24
2019-05-26T00:51:44.244Z,85.75
2019-05-26T00:54:12.838Z,85.20
2019-05-26T00:56:41.471Z,85.40
2019-05-26T00:59:10.149Z,86.09
2019-05-26T01:01:38.728Z,86.20
2019-05-26T01:04:07.297Z,86.06
2019-05-26T01:06:35.789Z,86.79
2019-05-26T01:09:07.248Z,87.28
2019-05-26T01:11:35.713Z,87.48
2019-05-26T01:14:04.336Z,87.18
2019-05-26T01:16:32.757Z,85.74
2019-05-26T01:19:01.220Z,85.00
2019-05-26T01:21:30.030Z,84.79
2019-05-26T01:23:58.529Z,85.69
2019-05-26T01:26:27.090Z,86.49
2019-05-26T01:28:55.533Z,87.51
2019-05-26T01:31:24.053Z,88.51
2019-05-26T01:33:52.582Z,89.14
2019-05-26T01:36:21.503Z,87.68
2019-05-26T01:38:50.750Z,87.70
2019-05-26T01:41:19.418Z,88.07
2019-05-26T01:43:47.843Z,89.38
2019-05-26T01:46:16.358Z,88.67
2019-05-26T01:48:44.998Z,89.23
2019-05-26T01:51:13.443Z,89.10
2019-05-26T01:53:41.895Z,90.53
2019-05-26T01:56:10.378Z,89.89
2019-05-26T01:58:38.798Z,89.56
2019-05-26T02:01:07.323Z,89.46
2019-05-26T02:03:35.787Z,88.59
2019-05-26T02:06:04.297Z,88.45
2019-05-26T02:08:39.192Z,87.90
2019-05-26T02:11:03.098Z,87.59
2019-05-26T02:13:31.520Z,88.65
2019-05-26T02:15:59.955Z,89.53
2019-05-26T02:18:28.422Z,88.75
2019-05-26T02:20:56.874Z,88.51
2019-05-26T02:23:25.342Z,88.51
2019-05-26T02:25:54.029Z,89.13
2019-05-26T02:28:22.536Z,89.23
2019-05-26T02:30:51.035Z,89.18
2019-05-26T02:33:19.693Z,89.42
2019-05-26T02:35:48.260Z,89.72
2019-05-26T02:38:16.695Z,90.07
2019-05-26T02:40:45.183Z,89.37
2019-05-26T02:43:13.666Z,89.64
2019-05-26T02:45:42.112Z,89.73
2019-05-26T02:48:10.594Z,89.42
2019-05-26T02:50:39.200Z,89.02
2019-05-26T02:53:07.634Z,88.83
2019-05-26T02:55:36.211Z,89.18
2019-05-26T02:58:04.783Z,90.27
2019-05-26T03:00:42.365Z,90.19
2019-05-26T03:03:12.036Z,88.83
2019-05-26T03:05:43.992Z,89.47
2019-05-26T03:08:13.251Z,90.40
2019-05-26T03:10:41.940Z,90.79
2019-05-26T03:13:13.422Z,91.21
2019-05-26T03:15:46.752Z,90.45
2019-05-26T03:18:15.751Z,91.28
2019-05-26T03:20:44.629Z,91.39
2019-05-26T03:23:14.680Z,91.45
2019-05-26T03:25:43.374Z,91.54
2019-05-26T03:28:11.820Z,91.31
2019-05-26T03:30:40.313Z,91.09
2019-05-26T03:33:08.733Z,90.30
2019-05-26T03:35:37.162Z,90.62
2019-05-26T03:38:05.694Z,89.99
2019-05-26T03:40:34.199Z,91.27
2019-05-26T03:43:02.638Z,91.46
2019-05-26T03:45:42.534Z,91.72
2019-05-26T03:48:11.009Z,92.26
2019-05-26T03:50:39.574Z,92.30
2019-05-26T03:53:08.124Z,90.86
2019-05-26T03:55:36.575Z,90.88
2019-05-26T03:58:05.146Z,90.79
2019-05-26T04:00:33.850Z,90.34
2019-05-26T04:03:02.326Z,91.18
2019-05-26T04:05:30.876Z,91.36
2019-05-26T04:08:04.024Z,90.25
2019-05-26T04:10:29.715Z,89.55
2019-05-26T04:12:58.140Z,89.42
2019-05-26T04:15:26.849Z,89.40
2019-05-26T04:17:55.738Z,90.30
2019-05-26T04:20:24.250Z,89.88
2019-05-26T04:22:52.720Z,90.00
2019-05-26T04:25:21.153Z,90.08
2019-05-26T04:27:49.588Z,90.74
2019-05-26T04:30:18.202Z,90.94
2019-05-26T04:32:46.736Z,91.20
2019-05-26T04:35:15.618Z,91.49
2019-05-26T04:37:44.090Z,89.02
2019-05-26T04:40:26.606Z,86.31
2019-05-26T04:42:43.043Z,83.70
2019-05-26T04:45:11.678Z,81.14
2019-05-26T04:47:40.104Z,79.03
2019-05-26T04:50:09.101Z,77.52
2019-05-26T04:52:37.596Z,75.34
2019-05-26T04:55:07.079Z,75.26
2019-05-26T04:57:35.504Z,75.04
2019-05-26T05:00:08.700Z,74.12
2019-05-26T05:02:37.172Z,74.09
2019-05-26T05:05:07.624Z,73.19
2019-05-26T05:07:36.146Z,74.07
2019-05-26T05:10:06.228Z,73.46
2019-05-26T05:12:34.662Z,71.85
2019-05-26T05:15:04.285Z,71.34
2019-05-26T05:17:32.879Z,70.65
2019-05-26T05:20:01.315Z,70.11
2019-05-26T05:22:29.844Z,70.64
2019-05-26T05:24:58.268Z,71.45
2019-05-26T05:27:26.704Z,71.24
2019-05-26T05:29:55.190Z,72.41
2019-05-26T05:32:23.637Z,71.14
2019-05-26T05:34:52.110Z,71.20
2019-05-26T05:37:20.592Z,70.91
2019-05-26T05:39:49.023Z,70.36
2019-05-26T05:42:17.527Z,68.59
2019-05-26T05:44:46.064Z,68.46
2019-05-26T05:47:14.509Z,68.74
2019-05-26T05:49:43.059Z,69.10
2019-05-26T05:52:11.527Z,67.12
2019-05-26T05:54:39.973Z,67.88
2019-05-26T05:57:08.453Z,67.70
2019-05-26T05:59:36.914Z,66.79
2019-05-26T06:02:05.488Z,68.10
2019-05-26T06:04:33.952Z,69.33
2019-05-26T06:07:02.560Z,70.34
2019-05-26T06:09:31.062Z,68.70
2019-05-26T06:11:59.600Z,67.65
2019-05-26T06:14:28.228Z,67.71
2019-05-26T06:16:56.675Z,67.48
2019-05-26T06:19:25.108Z,68.72
2019-05-26T06:21:53.725Z,69.81
2019-05-26T06:24:22.304Z,70.48
2019-05-26T06:26:50.741Z,69.04
2019-05-26T06:29:19.384Z,68.63
2019-05-26T06:31:48.133Z,70.83
2019-05-26T06:34:16.621Z,68.92
2019-05-26T06:36:45.147Z,69.74
2019-05-26T06:39:13.586Z,70.08
2019-05-26T06:41:42.106Z,69.24
2019-05-26T06:44:10.580Z,67.17
2019-05-26T06:46:39.043Z,67.72
2019-05-26T06:49:07.538Z,67.26
2019-05-26T06:51:36.020Z,66.76
2019-05-26T06:54:04.550Z,67.43
2019-05-26T06:56:33.053Z,67.19
2019-05-26T06:59:02.842Z,68.35
2019-05-26T07:01:31.817Z,67.94
2019-05-26T07:04:00.246Z,68.98
2019-05-26T07:06:28.794Z,67.90
2019-05-26T07:08:57.294Z,69.20
2019-05-26T07:11:25.738Z,66.19
2019-05-26T07:13:54.278Z,66.43
2019-05-26T07:16:36.850Z,65.87
2019-05-26T07:18:53.269Z,64.85
2019-05-26T07:21:23.831Z,65.28
2019-05-26T07:23:52.265Z,63.83
2019-05-26T07:26:20.710Z,64.21
2019-05-26T07:28:49.253Z,62.01
2019-05-26T07:31:17.814Z,63.15
2019-05-26T07:33:46.243Z,63.16
2019-05-26T07:36:14.716Z,61.94
2019-05-26T07:38:43.203Z,63.41
2019-05-26T07:41:11.643Z,62.05
2019-05-26T07:43:40.122Z,60.66
2019-05-26T07:46:08.625Z,61.88
2019-05-26T07:48:37.137Z,60.12
2019-05-26T07:51:05.817Z,61.02
2019-05-26T07:53:34.367Z,59.39
2019-05-26T07:56:02.860Z,60.63
2019-05-26T07:58:31.310Z,60.33
2019-05-26T08:00:59.742Z,58.84
2019-05-26T08:03:28.174Z,58.09
2019-05-26T08:05:56.645Z,60.77
2019-05-26T08:08:25.083Z,61.08
2019-05-26T08:10:53.523Z,61.34
2019-05-26T08:13:22.127Z,58.98
2019-05-26T08:15:50.562Z,57.83
2019-05-26T08:18:19.071Z,60.77
2019-05-26T08:20:47.606Z,59.04
2019-05-26T08:23:16.169Z,58.47
2019-05-26T08:25:44.665Z,58.46
2019-05-26T08:28:13.199Z,56.58
2019-05-26T08:30:41.729Z,57.60
2019-05-26T08:33:10.205Z,55.96
2019-05-26T08:35:38.797Z,57.37
2019-05-26T08:38:07.284Z,57.04
2019-05-26T08:40:35.724Z,57.58
2019-05-26T08:43:04.443Z,57.02
2019-05-26T08:45:32.917Z,57.13
2019-05-26T08:48:01.494Z,55.93
2019-05-26T08:50:30.094Z,57.10
2019-05-26T08:52:58.610Z,55.20
2019-05-26T08:55:27.054Z,57.10
2019-05-26T08:57:55.600Z,56.27
2019-05-26T09:00:24.370Z,56.10
2019-05-26T09:02:52.964Z,55.89
2019-05-26T09:05:21.719Z,55.75
2019-05-26T09:07:50.226Z,54.64
2019-05-26T09:10:19.639Z,54.95
2019-05-26T09:13:00.384Z,55.54
2019-05-26T09:15:18.699Z,56.28
2019-05-26T09:17:47.340Z,54.74
2019-05-26T09:20:16.286Z,53.23
2019-05-26T09:22:44.791Z,52.56
2019-05-26T09:25:13.871Z,53.03
2019-05-26T09:27:42.399Z,53.08
2019-05-26T09:30:11.176Z,52.40
2019-05-26T09:32:39.624Z,52.31
2019-05-26T09:35:08.826Z,52.37
2019-05-26T09:37:37.357Z,52.58
2019-05-26T09:40:08.941Z,48.95
2019-05-26T09:42:37.538Z,50.36
2019-05-26T09:45:08.712Z,51.25
2019-05-26T09:47:37.171Z,51.82
2019-05-26T09:50:09.405Z,51.61
2019-05-26T09:52:38.246Z,47.98
2019-05-26T09:55:08.687Z,48.89
2019-05-26T09:57:37.409Z,47.29
2019-05-26T10:00:10.511Z,47.30
2019-05-26T10:02:38.954Z,47.10
2019-05-26T10:05:08.652Z,48.37
2019-05-26T10:07:37.089Z,49.12
2019-05-26T10:10:09.169Z,48.40
2019-05-26T10:12:37.646Z,47.20
2019-05-26T10:15:07.021Z,48.02
2019-05-26T10:17:35.521Z,46.45
2019-05-26T10:20:07.406Z,46.50
2019-05-26T10:22:36.032Z,47.77
2019-05-26T10:25:06.129Z,45.74
2019-05-26T10:27:34.857Z,45.78
2019-05-26T10:30:04.965Z,45.26
2019-05-26T10:32:33.471Z,46.64
2019-05-26T10:35:01.973Z,46.40
2019-05-26T10:37:30.549Z,45.31
2019-05-26T10:39:59.056Z,44.46
2019-05-26T10:42:27.517Z,43.61
2019-05-26T10:44:56.023Z,44.07
2019-05-26T10:47:24.470Z,44.21
2019-05-26T10:49:53.015Z,47.18
2019-05-26T10:52:21.590Z,45.23
2019-05-26T10:54:50.119Z,45.12
2019-05-26T10:57:18.652Z,43.97
2019-05-26T10:59:47.094Z,44.65
2019-05-26T11:02:15.610Z,44.68
2019-05-26T11:04:44.228Z,44.27
2019-05-26T11:07:12.740Z,43.45
2019-05-26T11:09:41.172Z,43.35
2019-05-26T11:12:09.883Z,43.42
2019-05-26T11:14:38.309Z,43.87
2019-05-26T11:17:08.255Z,43.66
2019-05-26T11:19:36.713Z,41.95
2019-05-26T11:22:05.289Z,42.84
2019-05-26T11:24:33.861Z,42.49
2019-05-26T11:27:09.399Z,42.99
2019-05-26T11:29:32.688Z,41.50
2019-05-26T11:32:01.135Z,40.49
2019-05-26T11:34:30.424Z,40.97
2019-05-26T11:36:58.864Z,41.16
2019-05-26T11:39:27.433Z,41.42
2019-05-26T11:41:56.088Z,40.44
2019-05-26T11:44:24.592Z,42.35
2019-05-26T11:46:53.026Z,42.33
2019-05-26T11:49:21.496Z,39.43
2019-05-26T11:51:49.934Z,38.69
2019-05-26T11:54:18.383Z,41.14
2019-05-26T11:56:46.845Z,40.80
2019-05-26T11:59:15.284Z,39.72
2019-05-26T12:01:43.739Z,41.14
2019-05-26T12:04:12.200Z,40.21
2019-05-26T12:06:40.704Z,40.04
2019-05-26T12:09:09.894Z,40.77
2019-05-26T12:11:38.436Z,41.87
2019-05-26T12:14:07.029Z,39.87
2019-05-26T12:16:35.550Z,38.22
2019-05-26T12:19:04.146Z,39.14
2019-05-26T12:21:33.032Z,39.71
2019-05-26T12:24:01.463Z,41.01
2019-05-26T12:26:29.910Z,39.10
2019-05-26T12:28:58.435Z,39.95
2019-05-26T12:31:28.417Z,39.24
2019-05-26T12:33:57.159Z,39.12
2019-05-26T12:36:25.575Z,39.05
2019-05-26T12:38:54.015Z,36.67
2019-05-26T12:41:22.861Z,37.67
2019-05-26T12:43:51.323Z,36.54
2019-05-26T12:46:19.898Z,39.40
2019-05-26T12:48:48.538Z,38.54
2019-05-26T12:51:17.145Z,38.12
2019-05-26T12:53:45.575Z,37.80
2019-05-26T12:56:14.105Z,37.68
2019-05-26T12:58:42.625Z,37.17
2019-05-26T13:01:11.196Z,37.66
2019-05-26T13:03:39.736Z,37.93
2019-05-26T13:06:08.312Z,39.10
2019-05-26T13:08:38.292Z,37.64
2019-05-26T13:11:06.758Z,38.02
2019-05-26T13:13:35.201Z,37.86
2019-05-26T13:16:03.723Z,38.40
2019-05-26T13:18:32.255Z,36.07
2019-05-26T13:21:00.763Z,38.15
2019-05-26T13:23:29.199Z,37.77
2019-05-26T13:25:57.670Z,36.57
2019-05-26T13:28:26.106Z,37.48
2019-05-26T13:30:54.603Z,37.31
2019-05-26T13:33:23.075Z,38.19
2019-05-26T13:35:51.617Z,37.44
2019-05-26T13:38:20.067Z,38.41
2019-05-26T13:40:48.667Z,38.00
2019-05-26T13:43:17.096Z,38.12
2019-05-26T13:45:45.529Z,36.64
2019-05-26T13:48:13.994Z,38.45
2019-05-26T13:50:42.430Z,39.41
2019-05-26T13:53:10.861Z,37.67
2019-05-26T13:55:39.388Z,37.54
2019-05-26T13:58:07.906Z,38.35
2019-05-26T14:00:36.400Z,36.15
2019-05-26T14:03:05.003Z,37.38
2019-05-26T14:05:33.493Z,37.61
2019-05-26T14:08:01.940Z,37.08
2019-05-26T14:10:33.043Z,36.57
2019-05-26T14:13:01.878Z,37.96
2019-05-26T14:15:38.142Z,37.87
2019-05-26T14:18:02.436Z,37.78
2019-05-26T14:20:41.627Z,38.88
2019-05-26T14:23:11.134Z,38.17
2019-05-26T14:25:39.915Z,38.79
2019-05-26T14:28:08.693Z,39.42
2019-05-26T14:30:37.306Z,40.40
2019-05-26T14:33:06.008Z,40.48
2019-05-26T14:35:34.435Z,41.62
2019-05-26T14:38:02.982Z,38.92
2019-05-26T14:40:33.008Z,38.26
2019-05-26T14:43:01.520Z,39.33
2019-05-26T14:45:30.013Z,37.97
2019-05-26T14:47:58.446Z,37.08
2019-05-26T14:50:27.225Z,37.34
2019-05-26T14:52:56.469Z,37.40
2019-05-26T14:55:25.045Z,37.43
2019-05-26T14:57:53.479Z,36.66
2019-05-26T15:00:23.758Z,38.87
2019-05-26T15:02:52.340Z,36.65
2019-05-26T15:05:21.003Z,34.81
2019-05-26T15:07:49.565Z,35.53
2019-05-26T15:10:18.315Z,35.35
2019-05-26T15:12:46.811Z,34.79
2019-05-26T15:15:15.617Z,37.08
2019-05-26T15:17:44.046Z,35.44
2019-05-26T15:20:13.122Z,34.30
2019-05-26T15:22:41.726Z,33.66
2019-05-26T15:25:10.398Z,34.35
2019-05-26T15:27:38.819Z,34.16
2019-05-26T15:30:09.213Z,34.17
2019-05-26T15:32:37.861Z,35.08
2019-05-26T15:35:07.560Z,34.89
2019-05-26T15:37:36.084Z,35.08
2019-05-26T15:40:07.052Z,35.54
2019-05-26T15:42:35.553Z,35.52
2019-05-26T15:45:06.386Z,37.47
2019-05-26T15:47:34.889Z,35.10
2019-05-26T15:50:04.557Z,35.66
2019-05-26T15:52:33.097Z,36.14
2019-05-26T15:55:01.611Z,37.25
2019-05-26T15:57:30.112Z,36.59
2019-05-26T15:59:58.596Z,37.64
2019-05-26T16:02:27.029Z,37.57
2019-05-26T16:04:58.807Z,36.27
2019-05-26T16:07:25.795Z,35.30
2019-05-26T16:09:54.403Z,38.33
2019-05-26T16:12:22.831Z,38.27
2019-05-26T16:14:51.292Z,37.74
2019-05-26T16:17:19.737Z,38.38
2019-05-26T16:19:48.158Z,38.67
2019-05-26T16:22:16.622Z,38.33
2019-05-26T16:24:45.087Z,38.01
2019-05-26T16:27:19.077Z,39.08
2019-05-26T16:29:46.585Z,41.19
2019-05-26T16:32:14.154Z,42.27
2019-05-26T16:34:42.649Z,42.52
2019-05-26T16:37:11.196Z,42.41
2019-05-26T16:39:39.613Z,41.58
2019-05-26T16:42:08.056Z,43.48
2019-05-26T16:44:36.515Z,44.58
2019-05-26T16:47:05.178Z,44.68
2019-05-26T16:49:33.622Z,45.06
2019-05-26T16:52:02.127Z,45.15
2019-05-26T16:54:30.703Z,45.38
2019-05-26T16:56:59.406Z,44.01
2019-05-26T16:59:27.865Z,44.65
2019-05-26T17:01:56.367Z,45.27
2019-05-26T17:04:24.802Z,46.82
2019-05-26T17:06:53.354Z,46.52
2019-05-26T17:09:21.830Z,46.64
2019-05-26T17:11:50.281Z,47.25
2019-05-26T17:14:18.739Z,47.82
2019-05-26T17:16:47.165Z,47.36
2019-05-26T17:19:15.670Z,46.66
2019-05-26T17:21:44.254Z,46.94
2019-05-26T17:24:12.677Z,47.15
2019-05-26T17:26:41.115Z,46.87
2019-05-26T17:29:09.739Z,46.68
2019-05-26T17:31:38.252Z,46.82
2019-05-26T17:34:06.823Z,48.07
2019-05-26T17:36:35.300Z,47.19
2019-05-26T17:39:05.400Z,47.53
2019-05-26T17:41:33.830Z,49.67
2019-05-26T17:44:02.356Z,48.40
2019-05-26T17:46:30.780Z,48.58
2019-05-26T17:48:59.284Z,47.72
2019-05-26T17:51:27.909Z,48.67
2019-05-26T17:53:56.418Z,49.84
2019-05-26T17:56:25.002Z,48.25
2019-05-26T17:58:53.578Z,49.46
2019-05-26T18:01:22.070Z,48.75
2019-05-26T18:03:50.499Z,49.25
2019-05-26T18:06:18.960Z,49.68
2019-05-26T18:08:47.389Z,49.35
2019-05-26T18:11:15.887Z,49.78
2019-05-26T18:13:46.659Z,50.38
2019-05-26T18:16:14.671Z,50.34
2019-05-26T18:18:43.236Z,49.83
2019-05-26T18:21:11.715Z,50.26
2019-05-26T18:23:40.215Z,50.58
2019-05-26T18:26:08.727Z,50.52
2019-05-26T18:28:37.287Z,50.26
2019-05-26T18:31:05.744Z,50.91
2019-05-26T18:33:34.242Z,50.73
2019-05-26T18:36:02.886Z,50.85
2019-05-26T18:38:31.404Z,49.97
2019-05-26T18:41:00.036Z,51.46
2019-05-26T18:43:28.476Z,50.45
2019-05-26T18:45:57.012Z,50.42
2019-05-26T18:48:25.696Z,51.08
2019-05-26T18:50:54.403Z,51.53
2019-05-26T18:53:23.021Z,51.86
2019-05-26T18:55:51.661Z,52.54
2019-05-26T18:58:20.335Z,51.85
2019-05-26T19:00:48.965Z,52.53
2019-05-26T19:03:17.575Z,52.62
2019-05-26T19:05:46.317Z,52.76
2019-05-26T19:08:14.909Z,53.32
2019-05-26T19:10:43.514Z,52.79
2019-05-26T19:13:12.248Z,53.96
2019-05-26T19:15:40.963Z,53.78
2019-05-26T19:18:19.366Z,53.49
2019-05-26T19:20:40.167Z,53.34
2019-05-26T19:23:08.871Z,53.93
2019-05-26T19:25:37.502Z,54.39
2019-05-26T19:28:06.232Z,55.03
2019-05-26T19:30:34.930Z,54.89
2019-05-26T19:33:03.596Z,55.02
2019-05-26T19:35:32.380Z,55.62
2019-05-26T19:38:01.010Z,56.01
2019-05-26T19:40:29.651Z,55.47
2019-05-26T19:42:58.483Z,56.85
2019-05-26T19:45:27.096Z,56.84
2019-05-26T19:47:55.824Z,56.26
2019-05-26T19:50:24.428Z,57.99
2019-05-26T19:52:52.919Z,56.71
2019-05-26T19:55:21.367Z,57.19
2019-05-26T19:57:49.990Z,57.01
2019-05-26T20:00:19.182Z,57.24
2019-05-26T20:02:47.779Z,57.61
2019-05-26T20:05:16.818Z,57.90
2019-05-26T20:07:45.327Z,58.23
2019-05-26T20:10:15.535Z,58.17
2019-05-26T20:12:44.006Z,59.76
2019-05-26T20:15:13.682Z,59.02
2019-05-26T20:17:42.327Z,58.98
2019-05-26T20:20:11.528Z,59.47
2019-05-26T20:22:40.202Z,60.56
2019-05-26T20:25:09.566Z,60.33
2019-05-26T20:27:38.271Z,59.85
2019-05-26T20:30:07.647Z,62.53
2019-05-26T20:32:36.186Z,62.93
2019-05-26T20:35:07.663Z,63.15
2019-05-26T20:37:36.241Z,63.50
2019-05-26T20:40:09.151Z,63.60
2019-05-26T20:42:37.599Z,63.92
2019-05-26T20:45:09.791Z,66.61
2019-05-26T20:47:38.461Z,67.36
2019-05-26T20:50:08.000Z,67.48
2019-05-26T20:52:36.770Z,67.55
2019-05-26T20:55:06.879Z,67.76
2019-05-26T20:57:35.573Z,66.79
2019-05-26T21:00:07.315Z,67.15
2019-05-26T21:02:35.952Z,66.38
2019-05-26T21:05:06.848Z,66.72
2019-05-26T21:07:35.273Z,66.45
2019-05-26T21:10:05.897Z,66.67
2019-05-26T21:12:34.637Z,66.16
2019-05-26T21:15:03.412Z,66.17
2019-05-26T21:17:31.908Z,66.71
2019-05-26T21:20:00.381Z,66.84
2019-05-26T21:22:28.879Z,68.09
2019-05-26T21:24:57.316Z,68.42
2019-05-26T21:27:25.851Z,68.68
2019-05-26T21:29:54.271Z,69.46
2019-05-26T21:32:22.726Z,69.60
2019-05-26T21:34:51.188Z,69.63
2019-05-26T21:37:19.639Z,68.92
2019-05-26T21:39:48.117Z,68.98
2019-05-26T21:42:16.720Z,68.72
2019-05-26T21:44:45.208Z,67.96
2019-05-26T21:47:13.711Z,69.54
2019-05-26T21:49:42.319Z,68.93
2019-05-26T21:52:10.816Z,69.07
2019-05-26T21:54:41.319Z,71.43
2019-05-26T21:57:09.508Z,70.37
2019-05-26T21:59:37.948Z,71.17
2019-05-26T22:02:06.837Z,71.76
2019-05-26T22:04:35.411Z,71.66
2019-05-26T22:07:04.181Z,72.64
2019-05-26T22:09:33.562Z,72.77
2019-05-26T22:12:02.118Z,72.44
2019-05-26T22:14:30.529Z,71.77
2019-05-26T22:16:59.033Z,72.35
2019-05-26T22:19:27.511Z,71.85
2019-05-26T22:21:55.942Z,71.80
2019-05-26T22:24:24.638Z,72.13
2019-05-26T22:26:53.093Z,70.93
2019-05-26T22:29:21.555Z,71.04
2019-05-26T22:31:50.036Z,70.79
2019-05-26T22:34:18.505Z,70.80
2019-05-26T22:36:47.005Z,70.60
2019-05-26T22:39:15.542Z,70.90
2019-05-26T22:41:44.091Z,70.31
2019-05-26T22:44:12.536Z,68.80
2019-05-26T22:46:40.969Z,69.85
2019-05-26T22:49:09.423Z,70.04
2019-05-26T22:51:37.857Z,70.34
2019-05-26T22:54:06.289Z,70.42
2019-05-26T22:56:34.818Z,69.36
2019-05-26T22:59:03.246Z,68.60
2019-05-26T23:01:31.749Z,68.31
2019-05-26T23:04:03.111Z,68.40
2019-05-26T23:06:30.443Z,68.63
2019-05-26T23:08:58.948Z,67.98
2019-05-26T23:11:27.426Z,68.20
2019-05-26T23:13:55.859Z,68.28
2019-05-26T23:16:24.384Z,71.39
2019-05-26T23:18:52.848Z,71.85
2019-05-26T23:21:21.353Z,71.40
2019-05-26T23:23:49.788Z,71.54
2019-05-26T23:26:18.255Z,72.12
2019-05-26T23:28:46.821Z,72.99
2019-05-26T23:31:15.317Z,74.37
2019-05-26T23:33:44.112Z,75.84
2019-05-26T23:36:12.612Z,75.40
2019-05-26T23:38:41.031Z,75.73
2019-05-26T23:41:09.525Z,75.98
2019-05-26T23:43:38.002Z,76.28
2019-05-26T23:46:06.456Z,76.30
2019-05-26T23:48:34.905Z,77.15
2019-05-26T23:51:03.335Z,77.36
2019-05-26T23:53:31.836Z,77.19
2019-05-26T23:56:00.361Z,77.40
2019-05-26T23:58:28.793Z,77.26
